Time;durP1;ratioP1;P1;durP2;ratioP2;P2;SDS_P1;SDS_P2;PMS_P1;PMS_P2;Temp;Humidity;BMP_temperature;BMP_pressure;BME280_temperature;BME280_humidity;BME280_pressure;Samples;Min_cycle;Max_cycle;Signal;HPM_P1;HPM_P2
2024/03/19 00:01:08;;;;;;;24.77;9.88;;;;;;;12.05;56.29;101764.22;4938721;28;97068;-87
2024/03/19 00:03:34;;;;;;;21.02;9.18;;;;;;;12.06;56.37;101768.59;4952567;28;100239;-87
2024/03/19 00:05:59;;;;;;;25.48;10.02;;;;;;;12.09;56.52;101762.56;4932583;28;100243;-87
2024/03/19 00:08:26;;;;;;;25.92;10.38;;;;;;;12.13;56.87;101761.75;4929485;28;96932;-87
2024/03/19 00:10:52;;;;;;;19.75;9.88;;;;;;;12.17;56.99;101761.88;4937690;28;96861;-87
2024/03/19 00:13:18;;;;;;;22.00;9.77;;;;;;;12.23;57.00;101760.19;4949304;28;99946;-88
2024/03/19 00:15:47;;;;;;;21.35;9.05;;;;;;;12.28;57.02;101767.31;4940639;28;100255;-88
2024/03/19 00:18:12;;;;;;;21.17;9.90;;;;;;;12.34;56.81;101756.09;4955656;28;96932;-88
2024/03/19 00:20:37;;;;;;;23.00;9.77;;;;;;;12.40;56.77;101757.94;4953635;28;96915;-88
2024/03/19 00:23:03;;;;;;;28.20;9.80;;;;;;;12.43;56.71;101758.00;4948431;28;100917;-88
2024/03/19 00:25:29;;;;;;;23.77;9.95;;;;;;;12.45;56.81;101762.41;4939798;28;100394;-88
2024/03/19 00:27:55;;;;;;;23.17;9.48;;;;;;;12.49;56.93;101764.22;4941842;28;96889;-88
2024/03/19 00:30:21;;;;;;;22.90;9.60;;;;;;;12.53;56.63;101757.31;4935499;28;96913;-88
2024/03/19 00:32:47;;;;;;;20.13;10.35;;;;;;;12.55;56.63;101760.88;4942186;28;99292;-88
2024/03/19 00:35:12;;;;;;;20.33;9.65;;;;;;;12.59;56.99;101757.44;4939452;28;100176;-87
2024/03/19 00:37:42;;;;;;;21.83;9.50;;;;;;;12.61;56.79;101763.59;4945641;28;96888;-89
2024/03/19 00:40:11;;;;;;;21.33;10.32;;;;;;;12.64;56.87;101762.75;4961075;28;96795;-88
2024/03/19 00:42:40;;;;;;;23.05;10.18;;;;;;;12.66;56.92;101761.94;4933709;28;100531;-88
2024/03/19 00:45:06;;;;;;;25.35;10.02;;;;;;;12.70;56.95;101760.25;4937260;28;100442;-88
2024/03/19 00:47:32;;;;;;;24.05;9.10;;;;;;;12.72;57.01;101756.78;4954706;28;97199;-88
2024/03/19 00:49:58;;;;;;;22.45;8.68;;;;;;;12.76;56.77;101757.72;4953511;28;96900;-88
2024/03/19 00:52:23;;;;;;;25.75;9.50;;;;;;;12.79;56.88;101763.03;4955608;28;100328;-88
2024/03/19 00:54:48;;;;;;;22.13;9.70;;;;;;;12.81;56.81;101752.59;4950739;28;100143;-88
2024/03/19 00:57:14;;;;;;;24.23;10.32;;;;;;;12.83;56.62;101753.50;4952420;28;96836;-88
2024/03/19 00:59:39;;;;;;;22.08;9.25;;;;;;;12.84;56.92;101752.66;4941501;28;96887;-88
2024/03/19 01:02:06;;;;;;;23.55;10.55;;;;;;;12.85;57.01;101760.53;4937147;28;100697;-88
2024/03/19 01:04:33;;;;;;;23.17;9.02;;;;;;;12.86;57.04;101748.31;4953056;28;100223;-88
2024/03/19 01:07:00;;;;;;;24.15;9.68;;;;;;;12.88;57.11;101746.63;4955935;28;96929;-88
2024/03/19 01:09:27;;;;;;;20.08;9.00;;;;;;;12.90;57.05;101750.13;4956951;28;96903;-89
2024/03/19 01:11:53;;;;;;;26.50;9.85;;;;;;;12.94;57.15;101751.94;4948811;28;97879;-89
2024/03/19 01:14:18;;;;;;;21.30;9.45;;;;;;;12.96;57.08;101752.88;4941984;28;100596;-89
2024/03/19 01:16:44;;;;;;;21.75;9.68;;;;;;;12.97;57.06;101748.50;4953822;28;96808;-88
2024/03/19 01:19:09;;;;;;;22.20;9.38;;;;;;;13.01;57.20;101745.97;4942652;28;96960;-88
2024/03/19 01:21:35;;;;;;;23.13;9.75;;;;;;;13.02;57.08;101750.34;4938486;28;100876;-88
2024/03/19 01:24:01;;;;;;;21.65;9.73;;;;;;;13.03;57.05;101748.59;4957571;28;101364;-88
2024/03/19 01:26:27;;;;;;;21.90;9.63;;;;;;;13.07;57.25;101751.31;4955125;28;96931;-89
2024/03/19 01:28:52;;;;;;;20.25;9.10;;;;;;;13.11;57.14;101758.34;4937488;28;96929;-89
2024/03/19 01:31:18;;;;;;;19.95;9.13;;;;;;;13.11;56.94;101747.00;4932212;28;100803;-88
2024/03/19 01:33:43;;;;;;;25.42;9.80;;;;;;;13.11;57.48;101749.63;4959127;28;97780;-89
2024/03/19 01:36:09;;;;;;;22.77;9.68;;;;;;;13.12;57.05;101748.78;4955656;28;96933;-88
2024/03/19 01:38:35;;;;;;;24.73;10.50;;;;;;;13.13;57.11;101750.53;4959469;28;97213;-89
2024/03/19 01:41:01;;;;;;;20.70;10.00;;;;;;;13.13;57.27;101748.78;4956630;28;101198;-89
2024/03/19 01:43:26;;;;;;;25.77;10.55;;;;;;;13.15;57.09;101751.44;4939233;28;100324;-88
2024/03/19 01:46:07;;;;;;;26.80;10.95;;;;;;;13.16;57.21;101757.56;4954808;28;96893;-88
2024/03/19 01:48:33;;;;;;;22.88;10.00;;;;;;;13.20;57.30;101759.38;4950569;28;97070;-88
2024/03/19 01:50:59;;;;;;;24.48;10.63;;;;;;;13.20;57.12;101749.75;4957670;28;100276;-89
2024/03/19 01:53:26;;;;;;;26.52;11.38;;;;;;;13.22;57.12;101755.03;4936869;28;100387;-89
2024/03/19 01:55:52;;;;;;;23.67;11.18;;;;;;;13.23;57.10;101751.56;4953140;28;96819;-88
2024/03/19 01:58:21;;;;;;;25.50;10.27;;;;;;;13.23;57.17;101743.72;4936902;28;97047;-88
2024/03/19 02:00:47;;;;;;;27.70;11.35;;;;;;;13.24;57.25;101756.81;4952493;28;100793;-88
2024/03/19 02:03:13;;;;;;;23.73;10.32;;;;;;;13.27;57.24;101758.63;4953660;28;97684;-88
2024/03/19 02:05:39;;;;;;;20.45;9.32;;;;;;;13.29;57.18;101755.16;4952449;28;96813;-88
2024/03/19 02:08:05;;;;;;;24.98;10.40;;;;;;;13.29;57.22;101755.16;4940019;28;96813;-88
2024/03/19 02:10:30;;;;;;;24.02;10.55;;;;;;;13.30;57.33;101769.16;4936191;28;100268;-88
2024/03/19 02:12:55;;;;;;;21.95;9.48;;;;;;;13.30;57.19;101756.94;4944292;28;100289;-89
2024/03/19 02:15:21;;;;;;;22.88;9.82;;;;;;;13.31;57.33;101752.59;4936045;28;96939;-88
2024/03/19 02:17:47;;;;;;;22.05;9.05;;;;;;;13.30;57.03;101756.94;4954201;28;96899;-88
2024/03/19 02:20:12;;;;;;;20.38;9.50;;;;;;;13.34;57.47;101752.66;4949543;28;97912;-88
2024/03/19 02:22:46;;;;;;;25.27;9.40;;;;;;;13.35;57.30;101757.03;4951281;28;100312;-88
2024/03/19 02:25:12;;;;;;;19.70;9.05;;;;;;;13.39;57.25;101755.34;4951560;28;96982;-88
2024/03/19 02:27:38;;;;;;;20.40;8.52;;;;;;;13.42;57.18;101750.13;4936259;28;96916;-89
2024/03/19 02:30:05;;;;;;;19.02;9.25;;;;;;;13.42;57.18;101745.81;4940843;28;100605;-89
2024/03/19 02:32:31;;;;;;;19.33;8.35;;;;;;;13.45;57.38;101748.44;4936834;28;100132;-89
2024/03/19 02:34:56;;;;;;;19.65;8.90;;;;;;;13.47;57.44;101756.34;4941026;28;96875;-89
2024/03/19 02:37:21;;;;;;;20.60;9.48;;;;;;;13.51;57.53;101751.16;4954547;28;96880;-89
2024/03/19 02:39:47;;;;;;;20.63;9.07;;;;;;;13.55;57.41;101748.56;4949240;28;100423;-89
2024/03/19 02:42:12;;;;;;;17.58;8.50;;;;;;;13.58;57.30;101746.00;4937118;28;100251;-89
2024/03/19 02:44:39;;;;;;;18.75;8.88;;;;;;;13.61;57.53;101738.19;4957529;28;96986;-89
2024/03/19 02:47:05;;;;;;;20.13;9.68;;;;;;;13.65;57.38;101740.91;4952736;28;96927;-89
2024/03/19 02:49:30;;;;;;;19.58;8.85;;;;;;;13.68;57.51;101738.28;4945202;28;100706;-89
2024/03/19 02:51:55;;;;;;;17.63;7.93;;;;;;;13.70;57.43;101741.81;4953143;28;99072;-88
2024/03/19 02:54:21;;;;;;;21.20;9.05;;;;;;;13.73;57.47;101743.63;4952017;28;96858;-89
2024/03/19 02:56:46;;;;;;;21.40;7.88;;;;;;;13.73;57.62;101735.75;4937706;28;97044;-88
2024/03/19 02:59:12;;;;;;;18.95;8.65;;;;;;;13.74;57.22;101739.25;4953220;28;97870;-89
2024/03/19 03:01:37;;;;;;;18.58;8.70;;;;;;;13.77;57.51;101736.66;4938352;28;100807;-89
2024/03/19 03:04:03;;;;;;;19.75;8.23;;;;;;;13.79;57.60;101737.56;4942894;28;96850;-88
2024/03/19 03:06:28;;;;;;;21.05;8.23;;;;;;;13.83;57.50;101734.13;4941208;28;97093;-89
2024/03/19 03:08:54;;;;;;;17.65;8.15;;;;;;;13.86;57.43;101731.53;4936592;28;100520;-88
2024/03/19 03:11:19;;;;;;;20.67;8.27;;;;;;;13.90;57.55;101734.25;4954014;28;100570;-89
2024/03/19 03:13:45;;;;;;;17.10;8.35;;;;;;;13.92;57.27;101735.97;4943024;28;96939;-88
2024/03/19 03:16:10;;;;;;;18.05;8.07;;;;;;;13.94;57.39;101736.88;4936661;28;96841;-88
2024/03/19 03:18:35;;;;;;;21.23;9.07;;;;;;;13.95;57.34;101736.91;4936912;28;101357;-89
2024/03/19 03:21:01;;;;;;;20.42;8.88;;;;;;;13.97;57.41;101745.66;4950531;28;100399;-89
2024/03/19 03:23:26;;;;;;;15.90;8.05;;;;;;;13.99;57.42;101736.09;4953498;28;96927;-89
2024/03/19 03:25:52;;;;;;;17.23;7.93;;;;;;;14.01;57.46;101738.72;4936347;28;96973;-89
2024/03/19 03:28:17;;;;;;;16.48;7.88;;;;;;;14.03;57.36;101740.53;4943151;28;100697;-89
2024/03/19 03:30:43;;;;;;;16.25;8.15;;;;;;;14.05;57.45;101743.16;4934102;28;100178;-90
2024/03/19 03:33:08;;;;;;;16.17;8.13;;;;;;;14.06;57.46;101747.53;4940065;28;96928;-89
2024/03/19 03:35:34;;;;;;;20.98;7.53;;;;;;;14.09;57.36;101747.56;4953437;28;96944;-88
2024/03/19 03:37:59;;;;;;;19.27;7.60;;;;;;;14.09;57.43;101745.81;4942026;28;99801;-89
2024/03/19 03:40:24;;;;;;;17.70;7.72;;;;;;;14.11;57.53;101744.97;4957260;28;99950;-89
2024/03/19 03:42:51;;;;;;;19.80;7.20;;;;;;;14.12;57.42;101746.72;4945892;28;96767;-89
2024/03/19 03:45:21;;;;;;;16.55;7.10;;;;;;;14.13;57.53;101752.00;4940402;28;96976;-89
2024/03/19 03:47:47;;;;;;;15.68;6.85;;;;;;;14.15;57.50;101749.38;4934682;28;100598;-89
2024/03/19 03:50:13;;;;;;;13.52;6.25;;;;;;;14.15;57.60;101752.88;4945650;28;100288;-89
2024/03/19 03:52:39;;;;;;;13.25;6.53;;;;;;;14.17;57.55;101755.53;4946953;28;96908;-89
2024/03/19 03:55:07;;;;;;;13.93;6.03;;;;;;;14.19;57.71;101753.81;4948832;28;96987;-89
2024/03/19 03:57:33;;;;;;;17.42;7.30;;;;;;;14.21;57.65;101750.34;4937162;28;100830;-89
2024/03/19 03:59:59;;;;;;;17.45;7.30;;;;;;;14.23;57.38;101743.38;4956989;28;99989;-90
2024/03/19 04:02:25;;;;;;;16.05;7.43;;;;;;;14.24;57.42;101749.50;4945287;28;96932;-89
2024/03/19 04:04:54;;;;;;;18.10;7.75;;;;;;;14.24;57.39;101762.63;4941481;28;96973;-89
2024/03/19 04:07:19;;;;;;;;;;;;;;;14.20;57.28;101764.31;4957482;28;100628;-89
2024/03/19 04:09:45;;;;;;;16.63;7.63;;;;;;;14.22;57.23;101762.59;4956149;28;98634;-89
2024/03/19 04:12:10;;;;;;;16.73;7.68;;;;;;;14.22;57.39;101757.34;4959987;28;96830;-89
2024/03/19 04:14:36;;;;;;;16.75;7.45;;;;;;;14.19;57.38;101754.72;4956628;28;96929;-89
2024/03/19 04:17:02;;;;;;;17.23;8.00;;;;;;;14.20;57.47;101756.44;4946191;28;100771;-88
2024/03/19 04:19:27;;;;;;;17.33;7.68;;;;;;;14.19;57.69;101752.09;4955403;28;97551;-89
2024/03/19 04:21:53;;;;;;;16.42;7.60;;;;;;;14.19;57.66;101754.72;4941099;28;96940;-88
2024/03/19 04:24:18;;;;;;;15.88;7.85;;;;;;;14.19;57.72;101752.09;4941596;28;96815;-88
2024/03/19 04:26:43;;;;;;;16.88;7.43;;;;;;;14.21;57.61;101758.22;4954731;28;97982;-89
2024/03/19 04:29:15;;;;;;;15.77;7.63;;;;;;;14.22;57.69;101759.09;4939290;28;100420;-89
2024/03/19 04:31:41;;;;;;;15.90;7.80;;;;;;;14.23;57.63;101764.38;4941126;28;96773;-89
2024/03/19 04:34:09;;;;;;;16.00;7.22;;;;;;;14.23;57.75;101766.13;4947191;28;96904;-89
2024/03/19 04:36:34;;;;;;;14.18;7.22;;;;;;;14.21;57.94;101766.09;4951356;28;100569;-89
2024/03/19 04:39:02;;;;;;;14.90;7.03;;;;;;;14.22;57.73;101769.59;4960294;28;101231;-89
2024/03/19 04:41:28;;;;;;;16.90;6.88;;;;;;;14.25;57.58;101764.38;4950954;28;96814;-89
2024/03/19 04:43:54;;;;;;;17.42;8.13;;;;;;;14.27;57.79;101773.16;4943863;28;97056;-89
2024/03/19 04:46:19;;;;;;;17.67;7.72;;;;;;;14.26;57.72;101767.03;4957524;28;97818;-89
2024/03/19 04:48:45;;;;;;;16.90;7.75;;;;;;;14.26;57.60;101774.03;4960755;28;97525;-89
2024/03/19 04:51:11;;;;;;;20.15;8.30;;;;;;;14.27;57.62;101775.78;4953566;28;96845;-89
2024/03/19 04:53:37;;;;;;;18.95;8.43;;;;;;;14.26;57.61;101772.28;4940591;28;96916;-89
2024/03/19 04:56:03;;;;;;;18.38;8.50;;;;;;;14.26;57.57;101771.41;4939247;28;100611;-89
2024/03/19 04:58:28;;;;;;;16.95;7.93;;;;;;;14.26;57.65;101779.28;4940681;28;99235;-89
2024/03/19 05:00:54;;;;;;;18.15;7.80;;;;;;;14.25;57.68;101772.25;4941027;28;97128;-89
2024/03/19 05:03:20;;;;;;;18.75;8.77;;;;;;;14.26;57.79;101774.03;4953665;28;97039;-89
2024/03/19 05:05:45;;;;;;;19.15;8.52;;;;;;;14.27;57.75;101776.66;4955727;28;100335;-89
2024/03/19 05:08:11;;;;;;;19.42;8.75;;;;;;;14.30;57.75;101759.22;4954276;28;99734;-88
2024/03/19 05:10:36;;;;;;;16.92;8.52;;;;;;;14.32;57.69;101767.97;4949032;28;96883;-90
2024/03/19 05:13:01;;;;;;;22.10;8.73;;;;;;;14.33;57.71;101761.84;4952771;28;96936;-90
2024/03/19 05:15:27;;;;;;;21.80;9.25;;;;;;;14.35;57.72;101766.28;4943783;28;100558;-90
2024/03/19 05:17:52;;;;;;;19.23;8.75;;;;;;;14.37;57.65;101768.91;4955947;28;99099;-91
2024/03/19 05:20:18;;;;;;;19.20;8.77;;;;;;;14.35;57.49;101768.00;4945357;28;96903;-90
2024/03/19 05:22:44;;;;;;;17.42;8.88;;;;;;;14.32;57.49;101775.84;4940851;28;96936;-90
2024/03/19 05:25:10;;;;;;;17.58;8.80;;;;;;;14.30;57.50;101781.06;4937885;28;100225;-90
2024/03/19 05:27:38;;;;;;;20.00;8.10;;;;;;;14.30;58.16;101781.06;4936626;28;100212;-91
2024/03/19 05:30:04;;;;;;;21.15;8.57;;;;;;;14.31;57.67;101781.94;4955283;28;97122;-91
2024/03/19 05:32:29;;;;;;;20.02;8.90;;;;;;;14.32;57.98;101774.09;4953607;28;96628;-91
2024/03/19 05:34:55;;;;;;;21.33;9.60;;;;;;;14.35;57.83;101775.88;4956191;28;99511;-90
2024/03/19 05:37:20;;;;;;;18.42;8.77;;;;;;;14.36;57.82;101772.38;4956758;28;99832;-90
2024/03/19 05:39:45;;;;;;;20.23;9.57;;;;;;;14.37;57.53;101775.03;4953334;28;96843;-90
2024/03/19 05:42:11;;;;;;;24.13;9.13;;;;;;;14.39;57.88;101777.69;4936480;28;97174;-88
2024/03/19 05:44:37;;;;;;;22.63;9.93;;;;;;;14.40;57.65;101782.97;4942090;28;100551;-88
2024/03/19 05:47:02;;;;;;;20.60;8.52;;;;;;;14.40;57.56;101787.31;4942102;28;100188;-88
2024/03/19 05:49:28;;;;;;;18.88;8.90;;;;;;;14.40;57.79;101782.97;4942765;28;96940;-90
2024/03/19 05:51:53;;;;;;;17.45;8.93;;;;;;;14.39;57.76;101782.94;4933141;28;96979;-90
2024/03/19 05:54:19;;;;;;;20.17;9.35;;;;;;;14.40;57.65;101784.69;4941337;28;100259;-89
2024/03/19 05:56:44;;;;;;;20.33;8.93;;;;;;;14.40;57.72;101784.69;4936586;28;100264;-89
2024/03/19 05:59:10;;;;;;;19.88;8.90;;;;;;;14.37;57.66;101785.53;4944237;28;96789;-88
2024/03/19 06:01:35;;;;;;;19.10;9.63;;;;;;;14.36;57.77;101785.50;4955799;28;96894;-89
2024/03/19 06:04:01;;;;;;;23.00;9.55;;;;;;;14.35;57.50;101781.09;4941815;28;100420;-89
2024/03/19 06:06:27;;;;;;;18.60;9.32;;;;;;;14.32;57.67;101784.59;4937588;28;100359;-88
2024/03/19 06:08:52;;;;;;;25.17;9.85;;;;;;;14.30;57.91;101781.06;4944492;28;96833;-89
2024/03/19 06:11:18;;;;;;;22.98;9.50;;;;;;;14.31;57.73;101782.81;4950003;28;97043;-89
2024/03/19 06:13:43;;;;;;;19.88;10.15;;;;;;;14.31;57.96;101789.81;4934852;28;100165;-85
2024/03/19 06:16:09;;;;;;;18.80;10.40;;;;;;;14.32;57.90;101783.72;4951151;28;97929;-90
2024/03/19 06:18:34;;;;;;;20.50;10.05;;;;;;;14.32;57.92;101787.22;4953465;28;97549;-90
2024/03/19 06:20:59;;;;;;;22.23;9.80;;;;;;;14.33;57.95;101790.72;4947291;28;96878;-88
2024/03/19 06:23:25;;;;;;;18.23;9.88;;;;;;;14.33;58.00;101791.63;4942852;28;100542;-89
2024/03/19 06:25:52;;;;;;;18.92;10.48;;;;;;;14.36;58.26;101796.00;4953872;28;97845;-87
2024/03/19 06:28:17;;;;;;;18.88;9.75;;;;;;;14.39;58.23;101798.69;4940004;28;96930;-89
2024/03/19 06:30:42;;;;;;;21.00;9.52;;;;;;;14.44;58.03;101803.13;4943776;28;96961;-89
2024/03/19 06:33:08;;;;;;;18.05;9.43;;;;;;;14.47;58.03;101797.00;4960182;28;97519;-89
2024/03/19 06:35:33;;;;;;;18.50;9.25;;;;;;;14.46;57.90;101788.25;4952020;28;100431;-90
2024/03/19 06:38:02;;;;;;;17.48;8.93;;;;;;;14.47;57.63;101791.75;4955915;28;96892;-90
2024/03/19 06:40:28;;;;;;;21.48;9.85;;;;;;;14.51;57.94;101792.66;4950917;28;96927;-91
2024/03/19 06:42:53;;;;;;;18.63;8.52;;;;;;;14.51;57.85;101790.94;4949880;28;100225;-89
2024/03/19 06:45:18;;;;;;;19.85;8.77;;;;;;;14.53;57.72;101797.09;4951682;28;97707;-90
2024/03/19 06:47:44;;;;;;;18.88;8.20;;;;;;;14.52;57.82;101799.69;4941945;28;96858;-88
2024/03/19 06:50:13;;;;;;;19.90;8.75;;;;;;;14.52;57.85;101803.19;4949187;28;96999;-88
2024/03/19 06:52:39;;;;;;;;;;;;;;;14.49;57.75;101797.91;4947710;28;98098;-88
2024/03/19 06:55:05;;;;;;;17.52;7.82;;;;;;;14.56;57.80;101799.75;4947657;28;101297;-88
2024/03/19 06:57:31;;;;;;;18.55;8.57;;;;;;;14.58;57.79;101803.31;4967928;28;96844;-88
2024/03/19 06:59:57;;;;;;;16.15;8.55;;;;;;;14.61;57.98;101803.31;4953536;28;96810;-87
2024/03/19 07:02:30;;;;;;;18.20;8.43;;;;;;;14.65;57.64;101799.91;4951357;28;97995;-88
2024/03/19 07:04:55;;;;;;;17.15;8.43;;;;;;;14.69;57.83;101800.81;4953212;28;99923;-88
2024/03/19 07:07:22;;;;;;;19.30;8.32;;;;;;;14.72;57.85;101805.19;4956649;28;96890;-88
2024/03/19 07:09:49;;;;;;;20.05;8.75;;;;;;;14.71;57.64;101801.69;4957181;28;97055;-87
2024/03/19 07:12:15;;;;;;;18.80;8.82;;;;;;;14.73;57.60;101805.22;4956352;28;100721;-88
2024/03/19 07:14:44;;;;;;;17.13;7.45;;;;;;;14.74;57.72;101807.00;4954309;28;97588;-88
2024/03/19 07:17:10;;;;;;;17.52;7.63;;;;;;;14.75;57.76;101800.84;4939651;28;96819;-88
2024/03/19 07:19:35;;;;;;;17.60;7.88;;;;;;;14.77;57.83;101804.38;4933052;28;97047;-88
2024/03/19 07:22:00;;;;;;;18.55;7.43;;;;;;;14.78;57.78;101803.53;4953358;28;100452;-90
2024/03/19 07:24:26;;;;;;;18.33;7.35;;;;;;;14.80;57.94;101803.56;4954666;28;100224;-89
2024/03/19 07:26:51;;;;;;;15.38;7.00;;;;;;;14.80;57.61;101807.03;4942132;28;96778;-89
2024/03/19 07:29:17;;;;;;;13.68;6.18;;;;;;;14.81;57.70;101810.53;4944063;28;96896;-89
2024/03/19 07:31:43;;;;;;;18.15;6.70;;;;;;;14.82;57.75;101814.94;4949736;28;97958;-89
2024/03/19 07:34:09;;;;;;;13.23;6.20;;;;;;;14.84;57.67;101811.47;4941725;28;100341;-88
2024/03/19 07:36:35;;;;;;;16.23;6.60;;;;;;;14.87;57.60;101817.63;4951847;28;96904;-89
2024/03/19 07:39:11;;;;;;;14.80;5.88;;;;;;;14.89;57.62;101813.28;4950807;28;96836;-89
2024/03/19 07:41:40;;;;;;;13.13;6.28;;;;;;;14.92;57.90;101819.44;4955145;28;98893;-89
2024/03/19 07:44:06;;;;;;;12.00;5.95;;;;;;;14.98;57.81;101815.97;4951635;28;97892;-87
2024/03/19 07:46:31;;;;;;;13.65;6.30;;;;;;;15.02;57.54;101810.75;4945230;28;96958;-87
2024/03/19 07:48:57;;;;;;;14.43;6.45;;;;;;;15.04;57.52;101809.06;4955787;28;96802;-87
2024/03/19 07:51:24;;;;;;;13.90;6.18;;;;;;;15.08;57.63;101819.56;4959227;28;97618;-92
2024/03/19 07:53:49;;;;;;;14.15;5.60;;;;;;;15.12;57.67;101810.88;4954212;28;99914;-87
2024/03/19 07:56:14;;;;;;;11.13;5.97;;;;;;;15.16;57.47;101810.03;4941718;28;96770;-87
2024/03/19 07:58:40;;;;;;;12.65;5.60;;;;;;;15.18;57.30;101811.78;4938915;28;96879;-86
2024/03/19 08:01:07;;;;;;;12.75;5.45;;;;;;;15.22;57.38;101817.94;4948754;28;97841;-87
2024/03/19 08:03:34;;;;;;;11.77;5.82;;;;;;;15.24;57.24;101816.25;4950638;28;97767;-86
2024/03/19 08:06:01;;;;;;;14.27;5.63;;;;;;;15.28;57.21;101823.28;4970596;28;96890;-87
2024/03/19 08:08:27;;;;;;;13.57;5.80;;;;;;;15.32;57.21;101819.78;4951042;28;97032;-86
2024/03/19 08:10:53;;;;;;;15.23;5.60;;;;;;;15.34;57.14;101820.69;4948875;28;100508;-86
2024/03/19 08:13:18;;;;;;;19.92;5.60;;;;;;;15.38;57.21;101832.09;4955360;28;97875;-86
2024/03/19 08:15:44;;;;;;;11.68;5.45;;;;;;;15.39;57.05;101826.00;4956874;28;96937;-86
2024/03/19 08:18:09;;;;;;;13.68;5.75;;;;;;;15.43;57.25;101826.00;4942212;28;96944;-86
2024/03/19 08:20:37;;;;;;;13.77;6.05;;;;;;;15.47;57.11;101818.16;4954562;28;97718;-86
2024/03/19 08:23:04;;;;;;;12.90;5.75;;;;;;;15.52;57.40;101827.84;4960448;28;100329;-87
2024/03/19 08:25:31;;;;;;;15.68;5.80;;;;;;;15.54;57.16;101823.50;4946542;28;97067;-86
2024/03/19 08:27:56;;;;;;;13.13;6.32;;;;;;;15.56;57.02;101818.22;4953535;28;96904;-87
2024/03/19 08:30:22;;;;;;;14.52;5.85;;;;;;;15.60;56.93;101825.28;4947373;28;100735;-87
2024/03/19 08:32:48;;;;;;;17.25;6.97;;;;;;;15.62;57.22;101820.91;4941516;28;100435;-87
2024/03/19 08:35:14;;;;;;;14.98;6.25;;;;;;;15.64;57.11;101827.06;4954707;28;96805;-87
2024/03/19 08:37:41;;;;;;;16.90;6.72;;;;;;;15.71;56.96;101820.09;4957429;28;97039;-87
2024/03/19 08:40:07;;;;;;;13.15;5.70;;;;;;;15.75;56.85;101825.41;4943100;28;100419;-87
2024/03/19 08:42:34;;;;;;;13.98;6.10;;;;;;;15.80;56.91;101828.09;4950797;28;97747;-86
2024/03/19 08:45:00;;;;;;;11.65;5.75;;;;;;;15.84;56.97;101821.97;4944609;28;96819;-87
2024/03/19 08:47:26;;;;;;;12.20;5.25;;;;;;;15.89;56.70;101817.63;4941174;28;96972;-86
2024/03/19 08:49:52;;;;;;;12.95;5.68;;;;;;;15.91;56.54;101813.22;4944481;28;100816;-87
2024/03/19 08:52:17;;;;;;;11.40;5.05;;;;;;;15.95;56.53;101816.75;4950446;28;97753;-87
2024/03/19 08:54:43;;;;;;;12.40;5.03;;;;;;;15.97;56.52;101821.19;4943067;28;96919;-86
2024/03/19 08:57:11;;;;;;;11.13;4.90;;;;;;;15.99;56.38;101829.97;4956644;28;96913;-87
2024/03/19 08:59:37;;;;;;;13.60;5.55;;;;;;;16.03;56.52;101828.22;4942720;28;99690;-88
2024/03/19 09:02:04;;;;;;;11.10;4.80;;;;;;;16.08;56.45;101822.97;4944544;28;100458;-88
2024/03/19 09:04:33;;;;;;;12.05;5.20;;;;;;;16.12;56.41;101833.53;4943881;28;96948;-89
2024/03/19 09:06:58;;;;;;;12.57;5.57;;;;;;;16.20;56.36;101837.94;4934392;28;97077;-88
2024/03/19 09:09:24;;;;;;;12.82;4.72;;;;;;;16.24;56.45;101832.72;4957436;28;98174;-88
2024/03/19 09:11:51;;;;;;;11.02;5.13;;;;;;;16.29;56.12;101838.00;4943028;28;100503;-88
2024/03/19 09:14:18;;;;;;;9.60;4.57;;;;;;;16.35;56.22;101838.91;4952388;28;96891;-89
2024/03/19 09:16:43;;;;;;;10.32;4.53;;;;;;;16.40;56.25;101835.41;4952335;28;97112;-88
2024/03/19 09:19:09;;;;;;;9.65;4.55;;;;;;;16.45;56.07;101833.69;4946337;28;100577;-89
2024/03/19 09:21:34;;;;;;;9.73;4.85;;;;;;;16.51;56.09;101833.72;4945764;28;100231;-89
2024/03/19 09:24:00;;;;;;;10.18;4.13;;;;;;;16.56;55.90;101832.84;4938061;28;96868;-88
2024/03/19 09:26:25;;;;;;;8.60;3.90;;;;;;;16.62;55.77;101833.75;4950604;28;96891;-88
2024/03/19 09:28:51;;;;;;;8.50;4.03;;;;;;;16.66;55.51;101827.63;4938351;28;100533;-89
2024/03/19 09:31:16;;;;;;;9.80;4.25;;;;;;;16.70;55.10;101829.38;4952919;28;97924;-89
2024/03/19 09:33:42;;;;;;;10.82;4.78;;;;;;;16.70;55.05;101819.75;4940332;28;96888;-88
2024/03/19 09:36:08;;;;;;;7.85;4.03;;;;;;;16.71;55.08;101816.22;4943281;28;97073;-89
2024/03/19 09:38:33;;;;;;;11.75;4.55;;;;;;;16.72;55.17;101820.63;4951819;28;100473;-89
2024/03/19 09:41:03;;;;;;;10.55;4.07;;;;;;;16.75;55.10;101823.28;4938513;28;99783;-88
2024/03/19 09:43:34;;;;;;;10.23;4.72;;;;;;;16.82;55.24;101832.03;4955616;28;96865;-87
2024/03/19 09:46:00;;;;;;;10.50;4.32;;;;;;;16.88;55.03;101821.56;4951202;28;96945;-87
2024/03/19 09:48:27;;;;;;;11.90;4.75;;;;;;;16.98;55.09;101829.47;4958297;28;100348;-87
2024/03/19 09:50:52;;;;;;;9.13;4.05;;;;;;;17.07;55.04;101825.09;4952520;28;100854;-87
2024/03/19 09:53:19;;;;;;;10.88;4.38;;;;;;;17.14;54.87;101823.34;4946337;28;96894;-87
2024/03/19 09:55:46;;;;;;;10.65;4.30;;;;;;;17.20;54.79;101818.09;4944540;28;96936;-87
2024/03/19 09:58:13;;;;;;;10.38;4.30;;;;;;;17.26;54.37;101825.13;4948019;28;100356;-87
2024/03/19 10:00:44;;;;;;;11.07;4.70;;;;;;;17.31;54.62;101829.50;4960201;28;97640;-87
2024/03/19 10:03:09;;;;;;;13.98;4.85;;;;;;;17.37;54.71;101830.41;4951546;28;97100;-87
2024/03/19 10:05:35;;;;;;;11.93;5.10;;;;;;;17.42;54.24;101832.16;4958871;28;96967;-86
2024/03/19 10:08:00;;;;;;;9.48;4.95;;;;;;;17.47;54.63;101830.41;4945512;28;100620;-87
2024/03/19 10:10:27;;;;;;;11.98;5.45;;;;;;;17.52;54.18;101825.09;4956245;28;97897;-87
2024/03/19 10:12:52;;;;;;;12.82;5.47;;;;;;;17.57;53.96;101835.66;4945020;28;96874;-87
2024/03/19 10:15:22;;;;;;;13.32;5.50;;;;;;;17.60;53.96;101831.25;4946095;28;96936;-88
2024/03/19 10:17:48;;;;;;;16.55;6.10;;;;;;;17.63;53.63;101817.19;4974549;28;100505;-88
2024/03/19 10:20:14;;;;;;;11.95;5.00;;;;;;;17.68;53.63;101820.69;4941449;28;100076;-87
2024/03/19 10:22:41;;;;;;;14.50;5.35;;;;;;;17.76;54.39;101810.16;4941080;28;96775;-87
2024/03/19 10:25:07;;;;;;;12.77;4.63;;;;;;;17.91;54.53;101804.84;4960039;28;96899;-87
2024/03/19 10:27:34;;;;;;;10.52;4.65;;;;;;;18.16;54.48;101794.22;4945919;28;100400;-88
2024/03/19 10:30:02;;;;;;;13.30;4.40;;;;;;;18.49;54.52;101797.59;4950661;28;100138;-88
2024/03/19 10:32:28;;;;;;;10.80;4.28;;;;;;;18.86;54.52;101802.69;4938440;28;96917;-89
2024/03/19 10:34:56;;;;;;;9.82;3.55;;;;;;;19.24;54.13;101817.41;4945418;28;96908;-88
2024/03/19 10:37:23;;;;;;;11.40;3.70;;;;;;;19.57;53.14;101803.00;4939169;28;100530;-88
2024/03/19 10:39:48;;;;;;;12.52;4.18;;;;;;;19.81;52.08;101798.41;4955594;28;97371;-88
2024/03/19 10:42:14;;;;;;;14.02;3.95;;;;;;;19.91;51.86;101790.34;4943949;28;96871;-88
2024/03/19 10:44:40;;;;;;;10.02;3.35;;;;;;;20.03;51.51;101799.91;4954634;28;96923;-88
2024/03/19 10:47:05;;;;;;;8.38;3.33;;;;;;;20.14;51.00;101808.59;4951166;28;99851;-88
2024/03/19 10:49:32;;;;;;;11.38;3.28;;;;;;;20.24;50.58;101809.34;4957241;28;100648;-89
2024/03/19 10:52:20;;;;;;;10.10;2.92;;;;;;;20.25;49.95;101800.53;4954984;28;96906;-91
2024/03/19 10:54:47;;;;;;;9.82;2.55;;;;;;;20.25;48.89;101797.88;4943240;28;96842;-93
2024/03/19 10:57:15;;;;;;;10.65;2.70;;;;;;;20.23;49.06;101799.69;4946977;28;97024;-89
2024/03/19 10:59:41;;;;;;;11.10;2.17;;;;;;;20.28;49.69;101796.94;4960188;28;100602;-89
2024/03/19 11:02:07;;;;;;;8.48;2.22;;;;;;;20.39;49.47;101791.50;4940457;28;96858;-89
2024/03/19 11:04:33;;;;;;;9.93;2.10;;;;;;;20.52;49.50;101798.41;4956818;28;96803;-89
2024/03/19 11:06:59;;;;;;;9.48;2.20;;;;;;;20.68;49.61;101799.13;4962349;28;100815;-90
2024/03/19 11:09:26;;;;;;;8.05;1.75;;;;;;;20.96;50.19;101798.69;4963830;28;97805;-90